sensor_id;sensor_type;location;lat;lon;timestamp;pressure;altitude;pressure_sealevel;temperature;humidity
45255;BME280;30989;52.078;21.014;2023-07-31T00:01:42;168440.16;;;17.81;100.00
45255;BME280;30989;52.078;21.014;2023-07-31T00:04:08;168415.94;;;17.71;100.00
45255;BME280;30989;52.078;21.014;2023-07-31T00:06:33;168426.72;;;17.76;100.00
45255;BME280;30989;52.078;21.014;2023-07-31T00:08:59;168415.94;;;17.71;100.00
45255;BME280;30989;52.078;21.014;2023-07-31T00:11:24;168394.38;;;17.63;100.00
45255;BME280;30989;52.078;21.014;2023-07-31T00:13:49;168347.31;;;17.46;100.00
45255;BME280;30989;52.078;21.014;2023-07-31T00:16:15;168354.03;;;17.48;100.00
45255;BME280;30989;52.078;21.014;2023-07-31T00:18:40;168339.22;;;17.43;100.00
45255;BME280;30989;52.078;21.014;2023-07-31T00:21:06;168316.38;;;17.34;100.00
45255;BME280;30989;52.078;21.014;2023-07-31T00:23:31;168301.59;;;17.28;100.00
45255;BME280;30989;52.078;21.014;2023-07-31T00:25:56;168274.69;;;17.18;100.00
45255;BME280;30989;52.078;21.014;2023-07-31T00:28:22;168278.72;;;17.20;100.00
45255;BME280;30989;52.078;21.014;2023-07-31T00:30:47;168270.66;;;17.17;100.00
45255;BME280;30989;52.078;21.014;2023-07-31T00:33:13;168257.22;;;17.12;100.00
45255;BME280;30989;52.078;21.014;2023-07-31T00:35:38;168247.81;;;17.08;100.00
45255;BME280;30989;52.078;21.014;2023-07-31T00:38:04;168237.03;;;17.04;100.00
45255;BME280;30989;52.078;21.014;2023-07-31T00:40:29;168249.13;;;17.08;100.00
45255;BME280;30989;52.078;21.014;2023-07-31T00:42:54;168243.75;;;17.06;100.00
45255;BME280;30989;52.078;21.014;2023-07-31T00:45:21;168227.63;;;17.00;100.00
45255;BME280;30989;52.078;21.014;2023-07-31T00:47:49;168222.25;;;16.98;100.00
45255;BME280;30989;52.078;21.014;2023-07-31T00:50:14;168198.06;;;16.89;100.00
45255;BME280;30989;52.078;21.014;2023-07-31T00:52:39;168203.44;;;16.91;100.00
45255;BME280;30989;52.078;21.014;2023-07-31T00:55:05;168169.81;;;16.79;100.00
45255;BME280;30989;52.078;21.014;2023-07-31T00:57:32;168176.53;;;16.81;100.00
45255;BME280;30989;52.078;21.014;2023-07-31T00:59:58;168165.78;;;16.77;100.00
45255;BME280;30989;52.078;21.014;2023-07-31T01:02:24;168157.72;;;16.74;100.00
45255;BME280;30989;52.078;21.014;2023-07-31T01:04:51;168153.69;;;16.72;100.00
45255;BME280;30989;52.078;21.014;2023-07-31T01:07:33;168155.03;;;16.73;100.00
45255;BME280;30989;52.078;21.014;2023-07-31T01:10:19;168146.97;;;16.70;100.00
45255;BME280;30989;52.078;21.014;2023-07-31T01:12:47;168140.25;;;16.67;100.00
45255;BME280;30989;52.078;21.014;2023-07-31T01:15:13;168145.63;;;16.69;100.00
45255;BME280;30989;52.078;21.014;2023-07-31T01:17:41;168144.28;;;16.69;100.00
45255;BME280;30989;52.078;21.014;2023-07-31T01:20:12;168137.56;;;16.66;100.00
45255;BME280;30989;52.078;21.014;2023-07-31T01:22:54;168141.59;;;16.68;100.00
45255;BME280;30989;52.078;21.014;2023-07-31T01:28:04;168124.06;;;16.61;100.00
45255;BME280;30989;52.078;21.014;2023-07-31T01:30:37;168117.34;;;16.59;100.00
45255;BME280;30989;52.078;21.014;2023-07-31T01:33:05;168095.84;;;16.51;100.00
45255;BME280;30989;52.078;21.014;2023-07-31T01:35:36;168101.22;;;16.53;100.00
45255;BME280;30989;52.078;21.014;2023-07-31T01:38:02;168089.13;;;16.48;100.00
45255;BME280;30989;52.078;21.014;2023-07-31T01:40:28;168073.00;;;16.42;100.00
45255;BME280;30989;52.078;21.014;2023-07-31T01:42:54;168067.63;;;16.40;100.00
45255;BME280;30989;52.078;21.014;2023-07-31T01:45:19;168055.50;;;16.35;100.00
45255;BME280;30989;52.078;21.014;2023-07-31T01:47:45;168052.81;;;16.34;100.00
45255;BME280;30989;52.078;21.014;2023-07-31T01:50:11;168035.34;;;16.28;100.00
45255;BME280;30989;52.078;21.014;2023-07-31T01:52:36;168043.41;;;16.31;100.00
45255;BME280;30989;52.078;21.014;2023-07-31T01:55:02;168031.31;;;16.26;100.00
45255;BME280;30989;52.078;21.014;2023-07-31T01:57:28;168032.66;;;16.27;100.00
45255;BME280;30989;52.078;21.014;2023-07-31T01:59:53;168004.44;;;16.16;100.00
45255;BME280;30989;52.078;21.014;2023-07-31T02:02:22;168023.25;;;16.23;100.00
45255;BME280;30989;52.078;21.014;2023-07-31T02:04:48;167992.34;;;16.11;100.00
45255;BME280;30989;52.078;21.014;2023-07-31T02:07:13;168013.84;;;16.20;100.00
45255;BME280;30989;52.078;21.014;2023-07-31T02:09:39;167999.06;;;16.14;100.00
45255;BME280;30989;52.078;21.014;2023-07-31T02:12:05;167980.25;;;16.07;100.00
45255;BME280;30989;52.078;21.014;2023-07-31T02:14:30;167995.03;;;16.13;100.00
45255;BME280;30989;52.078;21.014;2023-07-31T02:16:57;167986.97;;;16.09;100.00
45255;BME280;30989;52.078;21.014;2023-07-31T02:19:22;167986.97;;;16.09;100.00
45255;BME280;30989;52.078;21.014;2023-07-31T02:21:48;167982.94;;;16.08;100.00
45255;BME280;30989;52.078;21.014;2023-07-31T02:24:13;167974.88;;;16.05;100.00
45255;BME280;30989;52.078;21.014;2023-07-31T02:26:39;167954.72;;;15.97;100.00
45255;BME280;30989;52.078;21.014;2023-07-31T02:29:04;167939.94;;;15.92;100.00
45255;BME280;30989;52.078;21.014;2023-07-31T02:31:30;167960.09;;;15.99;100.00
45255;BME280;30989;52.078;21.014;2023-07-31T02:33:55;167964.13;;;16.01;100.00
45255;BME280;30989;52.078;21.014;2023-07-31T02:36:20;167968.16;;;16.02;100.00
45255;BME280;30989;52.078;21.014;2023-07-31T02:38:46;167966.81;;;16.02;100.00
45255;BME280;30989;52.078;21.014;2023-07-31T02:41:11;167985.63;;;16.09;100.00
45255;BME280;30989;52.078;21.014;2023-07-31T02:43:37;167982.94;;;16.08;100.00
45255;BME280;30989;52.078;21.014;2023-07-31T02:46:27;168001.75;;;16.15;100.00
45255;BME280;30989;52.078;21.014;2023-07-31T02:48:54;167991.00;;;16.11;100.00
45255;BME280;30989;52.078;21.014;2023-07-31T02:51:20;168023.25;;;16.23;100.00
45255;BME280;30989;52.078;21.014;2023-07-31T02:53:47;168025.94;;;16.24;100.00
45255;BME280;30989;52.078;21.014;2023-07-31T02:56:13;168029.97;;;16.26;100.00
45255;BME280;30989;52.078;21.014;2023-07-31T02:58:39;168036.69;;;16.28;100.00
45255;BME280;30989;52.078;21.014;2023-07-31T03:01:04;168050.13;;;16.33;100.00
45255;BME280;30989;52.078;21.014;2023-07-31T03:03:29;168064.94;;;16.39;100.00
45255;BME280;30989;52.078;21.014;2023-07-31T03:05:55;168086.44;;;16.47;100.00
45255;BME280;30989;52.078;21.014;2023-07-31T03:08:20;168098.53;;;16.52;100.00
45255;BME280;30989;52.078;21.014;2023-07-31T03:10:46;168105.25;;;16.54;100.00
45255;BME280;30989;52.078;21.014;2023-07-31T03:13:11;168116.00;;;16.58;100.00
45255;BME280;30989;52.078;21.014;2023-07-31T03:15:37;168122.72;;;16.61;100.00
45255;BME280;30989;52.078;21.014;2023-07-31T03:18:02;168144.28;;;16.69;100.00
45255;BME280;30989;52.078;21.014;2023-07-31T03:20:28;168156.38;;;16.73;100.00
45255;BME280;30989;52.078;21.014;2023-07-31T03:22:53;168160.41;;;16.75;100.00
45255;BME280;30989;52.078;21.014;2023-07-31T03:25:19;168159.06;;;16.74;100.00
45255;BME280;30989;52.078;21.014;2023-07-31T03:27:44;168156.38;;;16.73;100.00
45255;BME280;30989;52.078;21.014;2023-07-31T03:30:10;168165.78;;;16.77;100.00
45255;BME280;30989;52.078;21.014;2023-07-31T03:32:35;168156.38;;;16.73;100.00
45255;BME280;30989;52.078;21.014;2023-07-31T03:35:01;168161.75;;;16.75;100.00
45255;BME280;30989;52.078;21.014;2023-07-31T03:37:26;168163.09;;;16.76;100.00
45255;BME280;30989;52.078;21.014;2023-07-31T03:39:52;168152.34;;;16.72;100.00
45255;BME280;30989;52.078;21.014;2023-07-31T03:42:18;168173.84;;;16.80;100.00
45255;BME280;30989;52.078;21.014;2023-07-31T03:44:43;168172.50;;;16.80;100.00
45255;BME280;30989;52.078;21.014;2023-07-31T03:47:10;168187.28;;;16.85;100.00
45255;BME280;30989;52.078;21.014;2023-07-31T03:49:36;168198.06;;;16.89;100.00
45255;BME280;30989;52.078;21.014;2023-07-31T03:52:02;168207.47;;;16.93;100.00
45255;BME280;30989;52.078;21.014;2023-07-31T03:54:27;168216.88;;;16.96;100.00
45255;BME280;30989;52.078;21.014;2023-07-31T03:56:53;168223.59;;;16.99;100.00
45255;BME280;30989;52.078;21.014;2023-07-31T03:59:18;168220.91;;;16.98;100.00
45255;BME280;30989;52.078;21.014;2023-07-31T04:01:44;168226.28;;;17.00;100.00
45255;BME280;30989;52.078;21.014;2023-07-31T04:04:09;168216.88;;;16.96;100.00
45255;BME280;30989;52.078;21.014;2023-07-31T04:06:35;168230.31;;;17.01;100.00
45255;BME280;30989;52.078;21.014;2023-07-31T04:09:02;168233.00;;;17.02;100.00
45255;BME280;30989;52.078;21.014;2023-07-31T04:11:27;168223.59;;;16.99;100.00
45255;BME280;30989;52.078;21.014;2023-07-31T04:13:53;168223.59;;;16.99;100.00
45255;BME280;30989;52.078;21.014;2023-07-31T04:16:18;168230.31;;;17.01;100.00
45255;BME280;30989;52.078;21.014;2023-07-31T04:18:43;168246.44;;;17.07;100.00
45255;BME280;30989;52.078;21.014;2023-07-31T04:21:09;168241.06;;;17.05;100.00
45255;BME280;30989;52.078;21.014;2023-07-31T04:23:35;168247.81;;;17.08;100.00
45255;BME280;30989;52.078;21.014;2023-07-31T04:26:00;168241.06;;;17.05;100.00
45255;BME280;30989;52.078;21.014;2023-07-31T04:28:26;168246.44;;;17.07;100.00
45255;BME280;30989;52.078;21.014;2023-07-31T04:30:52;168247.81;;;17.08;100.00
45255;BME280;30989;52.078;21.014;2023-07-31T04:33:18;168245.13;;;17.07;100.00
45255;BME280;30989;52.078;21.014;2023-07-31T04:35:50;168249.13;;;17.08;100.00
45255;BME280;30989;52.078;21.014;2023-07-31T04:38:18;168243.75;;;17.06;100.00
45255;BME280;30989;52.078;21.014;2023-07-31T04:40:43;168247.81;;;17.08;100.00
45255;BME280;30989;52.078;21.014;2023-07-31T04:43:09;168257.22;;;17.12;100.00
45255;BME280;30989;52.078;21.014;2023-07-31T04:45:34;168265.28;;;17.15;100.00
45255;BME280;30989;52.078;21.014;2023-07-31T04:47:59;168274.69;;;17.18;100.00
45255;BME280;30989;52.078;21.014;2023-07-31T04:50:25;168276.03;;;17.19;100.00
45255;BME280;30989;52.078;21.014;2023-07-31T04:52:50;168280.06;;;17.20;100.00
45255;BME280;30989;52.078;21.014;2023-07-31T04:55:16;168292.16;;;17.25;100.00
45255;BME280;30989;52.078;21.014;2023-07-31T04:57:41;168301.59;;;17.28;100.00
45255;BME280;30989;52.078;21.014;2023-07-31T05:00:07;168292.16;;;17.25;100.00
45255;BME280;30989;52.078;21.014;2023-07-31T05:02:32;168288.13;;;17.23;100.00
45255;BME280;30989;52.078;21.014;2023-07-31T05:04:58;168290.81;;;17.24;100.00
45255;BME280;30989;52.078;21.014;2023-07-31T05:07:23;168297.56;;;17.27;100.00
45255;BME280;30989;52.078;21.014;2023-07-31T05:09:49;168300.25;;;17.28;100.00
45255;BME280;30989;52.078;21.014;2023-07-31T05:12:14;168308.31;;;17.31;100.00
45255;BME280;30989;52.078;21.014;2023-07-31T05:14:40;168327.13;;;17.38;100.00
45255;BME280;30989;52.078;21.014;2023-07-31T05:17:05;168340.59;;;17.43;100.00
45255;BME280;30989;52.078;21.014;2023-07-31T05:19:31;168364.78;;;17.52;100.00
45255;BME280;30989;52.078;21.014;2023-07-31T05:21:56;168386.31;;;17.60;100.00
45255;BME280;30989;52.078;21.014;2023-07-31T05:24:22;168411.91;;;17.70;100.00
45255;BME280;30989;52.078;21.014;2023-07-31T05:26:47;168433.44;;;17.78;100.00
45255;BME280;30989;52.078;21.014;2023-07-31T05:29:12;168459.00;;;17.88;100.00
45255;BME280;30989;52.078;21.014;2023-07-31T05:31:38;168460.34;;;17.88;100.00
45255;BME280;30989;52.078;21.014;2023-07-31T05:34:04;168488.59;;;17.99;100.00
45255;BME280;30989;52.078;21.014;2023-07-31T05:36:29;168511.47;;;18.08;100.00
45255;BME280;30989;52.078;21.014;2023-07-31T05:38:55;168526.25;;;18.13;100.00
45255;BME280;30989;52.078;21.014;2023-07-31T05:41:20;168523.56;;;18.12;100.00
45255;BME280;30989;52.078;21.014;2023-07-31T05:43:46;168514.16;;;18.09;100.00
45255;BME280;30989;52.078;21.014;2023-07-31T05:46:11;168504.72;;;18.05;100.00
45255;BME280;30989;52.078;21.014;2023-07-31T05:48:37;168500.69;;;18.03;100.00
45255;BME280;30989;52.078;21.014;2023-07-31T05:51:03;168500.69;;;18.03;100.00
45255;BME280;30989;52.078;21.014;2023-07-31T05:53:28;168498.00;;;18.02;100.00
45255;BME280;30989;52.078;21.014;2023-07-31T05:55:54;168498.00;;;18.02;100.00
45255;BME280;30989;52.078;21.014;2023-07-31T05:58:19;168507.44;;;18.06;100.00
45255;BME280;30989;52.078;21.014;2023-07-31T06:00:45;168495.31;;;18.01;100.00
45255;BME280;30989;52.078;21.014;2023-07-31T06:03:10;168504.72;;;18.05;100.00
45255;BME280;30989;52.078;21.014;2023-07-31T06:05:36;168502.03;;;18.04;100.00
45255;BME280;30989;52.078;21.014;2023-07-31T06:08:01;168493.97;;;18.01;100.00
45255;BME280;30989;52.078;21.014;2023-07-31T06:10:26;168483.22;;;17.97;100.00
45255;BME280;30989;52.078;21.014;2023-07-31T06:12:52;168493.97;;;18.01;100.00
45255;BME280;30989;52.078;21.014;2023-07-31T06:15:18;168488.59;;;17.99;100.00
45255;BME280;30989;52.078;21.014;2023-07-31T06:17:44;168503.38;;;18.04;100.00
45255;BME280;30989;52.078;21.014;2023-07-31T06:20:10;168502.03;;;18.04;100.00
45255;BME280;30989;52.078;21.014;2023-07-31T06:22:36;168520.88;;;18.11;100.00
45255;BME280;30989;52.078;21.014;2023-07-31T06:25:01;168527.59;;;18.14;100.00
45255;BME280;30989;52.078;21.014;2023-07-31T06:27:26;168518.19;;;18.10;100.00
45255;BME280;30989;52.078;21.014;2023-07-31T06:29:52;168502.03;;;18.04;100.00
45255;BME280;30989;52.078;21.014;2023-07-31T06:32:17;168477.81;;;17.95;100.00
45255;BME280;30989;52.078;21.014;2023-07-31T06:34:43;168476.47;;;17.94;100.00
45255;BME280;30989;52.078;21.014;2023-07-31T06:37:09;168461.69;;;17.89;100.00
45255;BME280;30989;52.078;21.014;2023-07-31T06:39:34;168430.75;;;17.77;100.00
45255;BME280;30989;52.078;21.014;2023-07-31T06:41:59;168425.38;;;17.75;100.00
45255;BME280;30989;52.078;21.014;2023-07-31T06:44:25;168437.47;;;17.80;100.00
45255;BME280;30989;52.078;21.014;2023-07-31T06:46:51;168448.22;;;17.84;100.00
45255;BME280;30989;52.078;21.014;2023-07-31T06:49:16;168425.38;;;17.75;100.00
45255;BME280;30989;52.078;21.014;2023-07-31T06:51:42;168437.47;;;17.80;100.00
45255;BME280;30989;52.078;21.014;2023-07-31T06:54:10;168448.22;;;17.84;100.00
45255;BME280;30989;52.078;21.014;2023-07-31T06:56:35;168469.75;;;17.92;100.00
45255;BME280;30989;52.078;21.014;2023-07-31T06:59:01;168480.50;;;17.96;100.00
45255;BME280;30989;52.078;21.014;2023-07-31T07:01:26;168487.25;;;17.98;100.00
45255;BME280;30989;52.078;21.014;2023-07-31T07:03:53;168487.25;;;17.98;100.00
45255;BME280;30989;52.078;21.014;2023-07-31T07:06:19;168515.50;;;18.09;100.00
45255;BME280;30989;52.078;21.014;2023-07-31T07:08:45;168532.97;;;18.16;100.00
45255;BME280;30989;52.078;21.014;2023-07-31T07:11:10;168547.78;;;18.21;100.00
45255;BME280;30989;52.078;21.014;2023-07-31T07:13:37;168574.69;;;18.31;100.00
45255;BME280;30989;52.078;21.014;2023-07-31T07:16:03;168590.84;;;18.38;100.00
45255;BME280;30989;52.078;21.014;2023-07-31T07:18:28;168593.53;;;18.39;100.00
45255;BME280;30989;52.078;21.014;2023-07-31T07:20:54;168636.59;;;18.55;100.00
45255;BME280;30989;52.078;21.014;2023-07-31T07:23:20;168656.81;;;18.62;100.00
45255;BME280;30989;52.078;21.014;2023-07-31T07:25:46;168699.88;;;18.79;100.00
45255;BME280;30989;52.078;21.014;2023-07-31T07:28:12;168718.72;;;18.86;100.00
45255;BME280;30989;52.078;21.014;2023-07-31T07:30:38;168748.34;;;18.97;100.00
45255;BME280;30989;52.078;21.014;2023-07-31T07:33:03;168792.75;;;19.14;100.00
45255;BME280;30989;52.078;21.014;2023-07-31T07:35:29;168826.41;;;19.26;100.00
45255;BME280;30989;52.078;21.014;2023-07-31T07:37:54;168884.31;;;19.48;100.00
45255;BME280;30989;52.078;21.014;2023-07-31T07:40:20;168981.31;;;19.85;100.00
45255;BME280;30989;52.078;21.014;2023-07-31T07:42:46;169080.97;;;20.22;100.00
45255;BME280;30989;52.078;21.014;2023-07-31T07:45:13;169145.66;;;20.47;100.00
45255;BME280;30989;52.078;21.014;2023-07-31T07:47:40;169183.38;;;20.61;97.12
45255;BME280;30989;52.078;21.014;2023-07-31T07:50:06;169151.06;;;20.49;94.94
45255;BME280;30989;52.078;21.014;2023-07-31T07:52:32;169120.03;;;20.37;97.44
45255;BME280;30989;52.078;21.014;2023-07-31T07:54:57;169136.22;;;20.43;96.08
45255;BME280;30989;52.078;21.014;2023-07-31T07:57:23;169137.59;;;20.44;96.06
45255;BME280;30989;52.078;21.014;2023-07-31T07:59:48;169160.47;;;20.52;92.53
45255;BME280;30989;52.078;21.014;2023-07-31T08:02:14;169172.59;;;20.57;93.60
45255;BME280;30989;52.078;21.014;2023-07-31T08:04:39;169164.53;;;20.54;94.20
45255;BME280;30989;52.078;21.014;2023-07-31T08:07:05;169199.53;;;20.67;94.99
45255;BME280;30989;52.078;21.014;2023-07-31T08:09:30;169234.63;;;20.80;88.62
45255;BME280;30989;52.078;21.014;2023-07-31T08:11:56;169213.03;;;20.72;91.48
45255;BME280;30989;52.078;21.014;2023-07-31T08:14:27;169204.94;;;20.69;91.91
45255;BME280;30989;52.078;21.014;2023-07-31T08:16:52;169222.44;;;20.76;91.66
45255;BME280;30989;52.078;21.014;2023-07-31T08:19:17;169241.38;;;20.83;92.58
45255;BME280;30989;52.078;21.014;2023-07-31T08:21:43;169253.50;;;20.87;88.86
45255;BME280;30989;52.078;21.014;2023-07-31T08:24:08;169217.06;;;20.74;85.45
45255;BME280;30989;52.078;21.014;2023-07-31T08:26:34;169176.66;;;20.58;86.71
45255;BME280;30989;52.078;21.014;2023-07-31T08:28:59;169161.81;;;20.53;89.56
45255;BME280;30989;52.078;21.014;2023-07-31T08:31:25;169207.63;;;20.70;88.90
45255;BME280;30989;52.078;21.014;2023-07-31T08:33:50;169242.72;;;20.83;89.32
45255;BME280;30989;52.078;21.014;2023-07-31T08:36:16;169304.69;;;21.07;87.43
45255;BME280;30989;52.078;21.014;2023-07-31T08:38:41;169333.00;;;21.17;84.64
45255;BME280;30989;52.078;21.014;2023-07-31T08:41:06;169350.56;;;21.24;78.02
45255;BME280;30989;52.078;21.014;2023-07-31T08:43:32;169368.06;;;21.31;83.76
45255;BME280;30989;52.078;21.014;2023-07-31T08:45:58;169411.19;;;21.47;82.90
45255;BME280;30989;52.078;21.014;2023-07-31T08:48:24;169463.78;;;21.67;79.18
45255;BME280;30989;52.078;21.014;2023-07-31T08:50:53;169474.56;;;21.71;75.58
45255;BME280;30989;52.078;21.014;2023-07-31T08:53:19;169446.25;;;21.60;73.11
45255;BME280;30989;52.078;21.014;2023-07-31T08:55:46;169488.03;;;21.76;74.24
45255;BME280;30989;52.078;21.014;2023-07-31T08:58:12;169525.78;;;21.90;76.42
45255;BME280;30989;52.078;21.014;2023-07-31T09:00:39;169587.84;;;22.13;74.03
45255;BME280;30989;52.078;21.014;2023-07-31T09:03:09;169612.09;;;22.23;73.43
45255;BME280;30989;52.078;21.014;2023-07-31T09:05:38;169633.69;;;22.31;74.56
45255;BME280;30989;52.078;21.014;2023-07-31T09:08:05;169628.28;;;22.29;68.57
45255;BME280;30989;52.078;21.014;2023-07-31T09:10:31;169587.84;;;22.13;72.15
45255;BME280;30989;52.078;21.014;2023-07-31T09:12:57;169602.66;;;22.19;71.81
45255;BME280;30989;52.078;21.014;2023-07-31T09:15:23;169609.41;;;22.22;67.06
45255;BME280;30989;52.078;21.014;2023-07-31T09:17:58;169587.84;;;22.13;66.55
45255;BME280;30989;52.078;21.014;2023-07-31T09:20:25;169589.19;;;22.14;66.41
45255;BME280;30989;52.078;21.014;2023-07-31T09:22:51;169616.16;;;22.24;68.75
45255;BME280;30989;52.078;21.014;2023-07-31T09:25:18;169674.13;;;22.46;65.84
45255;BME280;30989;52.078;21.014;2023-07-31T09:30:17;169695.72;;;22.54;67.70
45255;BME280;30989;52.078;21.014;2023-07-31T09:32:45;169678.19;;;22.47;62.92
45255;BME280;30989;52.078;21.014;2023-07-31T09:35:19;169659.31;;;22.40;65.76
45255;BME280;30989;52.078;21.014;2023-07-31T09:37:53;169656.59;;;22.39;64.82
45255;BME280;30989;52.078;21.014;2023-07-31T09:40:30;169682.22;;;22.49;66.20
45255;BME280;30989;52.078;21.014;2023-07-31T09:43:06;169730.78;;;22.67;63.48
45255;BME280;30989;52.078;21.014;2023-07-31T09:45:35;169741.56;;;22.71;62.78
45255;BME280;30989;52.078;21.014;2023-07-31T09:48:02;169745.59;;;22.73;64.47
45255;BME280;30989;52.078;21.014;2023-07-31T09:50:28;169759.09;;;22.78;61.71
45255;BME280;30989;52.078;21.014;2023-07-31T09:52:54;169749.66;;;22.74;60.48
45255;BME280;30989;52.078;21.014;2023-07-31T09:55:20;169746.94;;;22.73;61.63
45255;BME280;30989;52.078;21.014;2023-07-31T09:57:47;169757.75;;;22.77;62.48
45255;BME280;30989;52.078;21.014;2023-07-31T10:00:15;169794.22;;;22.91;62.17
45255;BME280;30989;52.078;21.014;2023-07-31T10:02:45;169844.13;;;23.10;60.56
45255;BME280;30989;52.078;21.014;2023-07-31T10:05:13;169840.06;;;23.08;61.17
45255;BME280;30989;52.078;21.014;2023-07-31T10:07:39;169875.13;;;23.22;63.03
45255;BME280;30989;52.078;21.014;2023-07-31T10:10:08;169933.16;;;23.43;63.06
45255;BME280;30989;52.078;21.014;2023-07-31T10:12:37;169984.47;;;23.63;61.69
45255;BME280;30989;52.078;21.014;2023-07-31T10:15:04;170041.13;;;23.84;61.13
45255;BME280;30989;52.078;21.014;2023-07-31T10:17:30;170062.72;;;23.92;61.92
45255;BME280;30989;52.078;21.014;2023-07-31T10:19:58;170082.97;;;24.00;59.06
45255;BME280;30989;52.078;21.014;2023-07-31T10:22:26;170053.28;;;23.89;59.92
45255;BME280;30989;52.078;21.014;2023-07-31T10:24:52;170053.28;;;23.89;60.65
45255;BME280;30989;52.078;21.014;2023-07-31T10:27:19;170084.31;;;24.00;61.52
45255;BME280;30989;52.078;21.014;2023-07-31T10:29:45;170119.41;;;24.14;60.44
45255;BME280;30989;52.078;21.014;2023-07-31T10:32:14;170158.59;;;24.28;60.16
45255;BME280;30989;52.078;21.014;2023-07-31T10:34:41;170192.34;;;24.41;59.99
45255;BME280;30989;52.078;21.014;2023-07-31T10:37:28;170212.59;;;24.49;58.87
45255;BME280;30989;52.078;21.014;2023-07-31T10:40:05;170242.28;;;24.60;58.68
45255;BME280;30989;52.078;21.014;2023-07-31T10:42:36;170303.03;;;24.83;58.39
45255;BME280;30989;52.078;21.014;2023-07-31T10:45:07;170357.06;;;25.03;55.31
45255;BME280;30989;52.078;21.014;2023-07-31T10:47:46;170290.88;;;24.78;56.49
45255;BME280;30989;52.078;21.014;2023-07-31T10:50:22;170258.47;;;24.66;54.40
45255;BME280;30989;52.078;21.014;2023-07-31T10:52:53;170281.44;;;24.74;55.80
45255;BME280;30989;52.078;21.014;2023-07-31T10:57:56;170216.63;;;24.50;57.66
45255;BME280;30989;52.078;21.014;2023-07-31T11:03:02;170216.63;;;24.50;57.08
45255;BME280;30989;52.078;21.014;2023-07-31T11:05:53;170207.19;;;24.47;55.35
45255;BME280;30989;52.078;21.014;2023-07-31T11:08:28;170181.53;;;24.37;55.01
45255;BME280;30989;52.078;21.014;2023-07-31T11:11:14;170227.44;;;24.54;56.18
45255;BME280;30989;52.078;21.014;2023-07-31T11:13:47;170321.94;;;24.90;56.57
45255;BME280;30989;52.078;21.014;2023-07-31T11:16:19;170425.94;;;25.29;56.58
45255;BME280;30989;52.078;21.014;2023-07-31T11:18:46;170525.91;;;25.66;53.09
45255;BME280;30989;52.078;21.014;2023-07-31T11:21:16;170529.97;;;25.68;52.83
45255;BME280;30989;52.078;21.014;2023-07-31T11:23:48;170570.50;;;25.83;51.73
45255;BME280;30989;52.078;21.014;2023-07-31T11:26:14;170578.59;;;25.86;51.37
45255;BME280;30989;52.078;21.014;2023-07-31T11:28:40;170529.97;;;25.68;51.97
45255;BME280;30989;52.078;21.014;2023-07-31T11:31:09;170477.25;;;25.48;51.52
45255;BME280;30989;52.078;21.014;2023-07-31T11:33:35;170442.13;;;25.35;53.07
45255;BME280;30989;52.078;21.014;2023-07-31T11:36:00;170436.75;;;25.33;52.15
45255;BME280;30989;52.078;21.014;2023-07-31T11:38:28;170434.03;;;25.32;51.47
45255;BME280;30989;52.078;21.014;2023-07-31T11:40:55;170415.13;;;25.25;50.88
45255;BME280;30989;52.078;21.014;2023-07-31T11:43:21;170421.88;;;25.27;52.19
45255;BME280;30989;52.078;21.014;2023-07-31T11:45:58;170481.31;;;25.50;50.38
45255;BME280;30989;52.078;21.014;2023-07-31T11:48:26;170498.84;;;25.56;51.00
45255;BME280;30989;52.078;21.014;2023-07-31T11:50:59;170505.63;;;25.59;48.51
45255;BME280;30989;52.078;21.014;2023-07-31T11:56:14;170389.47;;;25.15;46.55
45255;BME280;30989;52.078;21.014;2023-07-31T11:58:42;170321.94;;;24.90;47.33
45255;BME280;30989;52.078;21.014;2023-07-31T12:01:10;170292.22;;;24.79;46.38
45255;BME280;30989;52.078;21.014;2023-07-31T12:03:36;170247.69;;;24.62;47.39
45255;BME280;30989;52.078;21.014;2023-07-31T12:06:02;170231.47;;;24.56;48.31
45255;BME280;30989;52.078;21.014;2023-07-31T12:08:29;170201.78;;;24.45;46.01
45255;BME280;30989;52.078;21.014;2023-07-31T12:11:02;170103.22;;;24.07;46.29
45255;BME280;30989;52.078;21.014;2023-07-31T12:13:30;170057.31;;;23.90;45.98
45255;BME280;30989;52.078;21.014;2023-07-31T12:15:58;170016.84;;;23.75;45.78
45255;BME280;30989;52.078;21.014;2023-07-31T12:18:26;170022.25;;;23.77;46.48
45255;BME280;30989;52.078;21.014;2023-07-31T12:20:59;170022.25;;;23.77;47.30
45255;BME280;30989;52.078;21.014;2023-07-31T12:23:26;170031.69;;;23.81;47.36
45255;BME280;30989;52.078;21.014;2023-07-31T12:26:11;170046.53;;;23.86;46.78
45255;BME280;30989;52.078;21.014;2023-07-31T12:28:39;170030.34;;;23.80;47.82
45255;BME280;30989;52.078;21.014;2023-07-31T12:31:05;170038.44;;;23.83;47.97
45255;BME280;30989;52.078;21.014;2023-07-31T12:33:32;170034.38;;;23.82;47.39
45255;BME280;30989;52.078;21.014;2023-07-31T12:36:01;170057.31;;;23.90;48.02
45255;BME280;30989;52.078;21.014;2023-07-31T12:38:27;170073.53;;;23.96;46.70
45255;BME280;30989;52.078;21.014;2023-07-31T12:40:53;170103.22;;;24.07;46.83
45255;BME280;30989;52.078;21.014;2023-07-31T12:43:18;170109.97;;;24.10;46.96
45255;BME280;30989;52.078;21.014;2023-07-31T12:45:44;170116.72;;;24.13;47.44